createdAt,value
2022-09-22T00:01:37.082Z,3.50
2022-09-22T00:04:07.607Z,3.97
2022-09-22T00:06:38.735Z,3.90
2022-09-22T00:09:14.350Z,3.80
2022-09-22T00:11:44.268Z,3.87
2022-09-22T00:14:14.252Z,3.77
2022-09-22T00:16:47.494Z,4.13
2022-09-22T00:19:17.297Z,3.80
2022-09-22T00:21:46.315Z,3.80
2022-09-22T00:24:16.757Z,3.77
2022-09-22T00:26:45.378Z,4.07
2022-09-22T00:29:14.330Z,3.90
2022-09-22T00:31:44.116Z,3.67
2022-09-22T00:34:16.396Z,3.80
2022-09-22T00:36:44.616Z,3.90
2022-09-22T00:39:13.719Z,3.90
2022-09-22T00:41:45.783Z,4.10
2022-09-22T00:44:36.985Z,4.00
2022-09-22T00:47:18.549Z,4.57
2022-09-22T00:49:51.879Z,4.60
2022-09-22T00:52:23.966Z,4.30
2022-09-22T00:54:55.005Z,4.20
2022-09-22T00:57:29.430Z,4.10
2022-09-22T00:59:57.942Z,4.27
2022-09-22T01:02:26.577Z,4.30
2022-09-22T01:04:55.419Z,4.13
2022-09-22T01:07:27.424Z,4.10
2022-09-22T01:09:56.203Z,4.10
2022-09-22T01:12:27.757Z,3.90
2022-09-22T01:15:21.162Z,4.27
2022-09-22T01:18:04.823Z,4.27
2022-09-22T01:21:22.940Z,4.37
2022-09-22T01:24:20.774Z,4.77
2022-09-22T01:27:31.184Z,4.60
2022-09-22T01:30:30.193Z,5.00
2022-09-22T01:33:27.491Z,4.40
2022-09-22T01:36:10.966Z,5.93
2022-09-22T01:38:49.362Z,4.80
2022-09-22T01:41:20.817Z,4.40
2022-09-22T01:43:53.164Z,4.10
2022-09-22T01:46:28.144Z,4.07
2022-09-22T01:49:00.751Z,4.53
2022-09-22T01:51:31.917Z,4.37
2022-09-22T01:54:05.509Z,4.60
2022-09-22T01:56:35.901Z,3.80
2022-09-22T01:59:08.405Z,4.43
2022-09-22T02:01:43.269Z,4.10
2022-09-22T02:04:17.754Z,4.27
2022-09-22T02:06:51.540Z,4.77
2022-09-22T02:09:22.933Z,4.80
2022-09-22T02:11:51.615Z,5.00
2022-09-22T02:14:20.416Z,4.37
2022-09-22T02:16:49.907Z,5.23
2022-09-22T02:19:20.951Z,4.87
2022-09-22T02:21:49.899Z,5.20
2022-09-22T02:24:29.154Z,5.00
2022-09-22T02:26:58.881Z,5.00
2022-09-22T02:29:31.315Z,4.67
2022-09-22T02:32:04.101Z,4.70
2022-09-22T02:34:32.828Z,4.90
2022-09-22T02:37:08.243Z,4.80
2022-09-22T02:39:43.387Z,4.80
2022-09-22T02:42:26.855Z,5.00
2022-09-22T02:45:00.703Z,5.50
2022-09-22T02:47:35.089Z,5.73
2022-09-22T02:50:06.571Z,5.10
2022-09-22T02:52:34.978Z,5.50
2022-09-22T02:55:03.154Z,5.63
2022-09-22T02:57:31.328Z,5.33
2022-09-22T02:59:59.512Z,5.40
2022-09-22T03:02:27.685Z,5.77
2022-09-22T03:04:57.988Z,5.70
2022-09-22T03:07:26.399Z,6.73
2022-09-22T03:09:54.669Z,6.43
2022-09-22T03:12:22.910Z,6.27
2022-09-22T03:14:51.382Z,6.57
2022-09-22T03:17:19.542Z,5.87
2022-09-22T03:19:47.695Z,6.60
2022-09-22T03:22:17.205Z,6.60
2022-09-22T03:24:45.352Z,7.77
2022-09-22T03:27:13.545Z,7.07
2022-09-22T03:29:41.739Z,7.43
2022-09-22T03:32:09.864Z,8.00
2022-09-22T03:34:38.056Z,8.73
2022-09-22T03:37:06.385Z,8.03
2022-09-22T03:39:35.949Z,9.60
2022-09-22T03:42:04.132Z,9.73
2022-09-22T03:44:32.423Z,9.23
2022-09-22T03:47:00.707Z,9.27
2022-09-22T03:49:29.357Z,9.60
2022-09-22T03:51:57.525Z,10.73
2022-09-22T03:54:25.883Z,9.70
2022-09-22T03:56:55.645Z,9.77
2022-09-22T03:59:23.778Z,8.77
2022-09-22T04:01:56.045Z,8.93
2022-09-22T04:04:26.398Z,11.30
2022-09-22T04:06:54.621Z,8.97
2022-09-22T04:09:22.979Z,11.10
2022-09-22T04:11:51.162Z,10.87
2022-09-22T04:14:20.826Z,10.50
2022-09-22T04:16:49.089Z,9.90
2022-09-22T04:19:17.467Z,9.10
2022-09-22T04:21:45.661Z,9.23
2022-09-22T04:24:13.917Z,8.60
2022-09-22T04:26:56.644Z,8.07
2022-09-22T04:29:31.803Z,8.83
2022-09-22T04:32:00.035Z,8.30
2022-09-22T04:34:28.330Z,7.23
2022-09-22T04:36:56.639Z,8.93
2022-09-22T04:39:24.896Z,15.30
2022-09-22T04:41:53.051Z,11.83
2022-09-22T04:44:21.264Z,14.00
2022-09-22T04:46:50.943Z,15.80
2022-09-22T04:49:22.003Z,16.10
2022-09-22T04:51:50.327Z,14.97
2022-09-22T04:54:18.586Z,12.67
2022-09-22T04:56:46.709Z,11.10
2022-09-22T04:59:14.883Z,8.73
2022-09-22T05:01:43.190Z,7.70
2022-09-22T05:04:12.799Z,7.60
2022-09-22T05:06:42.127Z,6.40
2022-09-22T05:09:10.608Z,6.93
2022-09-22T05:11:39.541Z,6.33
2022-09-22T05:14:07.779Z,5.87
2022-09-22T05:16:36.659Z,5.67
2022-09-22T05:19:04.890Z,6.50
2022-09-22T05:21:34.486Z,7.10
2022-09-22T05:24:03.510Z,6.97
2022-09-22T05:26:34.389Z,10.67
2022-09-22T05:29:02.538Z,9.80
2022-09-22T05:31:30.890Z,10.93
2022-09-22T05:33:59.103Z,12.87
2022-09-22T05:36:27.411Z,13.13
2022-09-22T05:38:56.958Z,13.17
2022-09-22T05:41:25.244Z,11.93
2022-09-22T05:43:53.436Z,13.23
2022-09-22T05:46:21.632Z,13.73
2022-09-22T05:48:49.913Z,16.80
2022-09-22T05:51:18.280Z,15.73
2022-09-22T05:53:46.568Z,14.83
2022-09-22T05:56:16.135Z,14.03
2022-09-22T05:58:44.291Z,12.17
2022-09-22T06:01:12.519Z,12.70
2022-09-22T06:03:40.755Z,13.27
2022-09-22T06:06:09.443Z,13.30
2022-09-22T06:08:37.976Z,13.70
2022-09-22T06:11:06.581Z,13.03
2022-09-22T06:13:36.388Z,12.70
2022-09-22T06:16:05.153Z,12.13
2022-09-22T06:18:33.383Z,11.17
2022-09-22T06:21:01.572Z,11.03
2022-09-22T06:23:29.778Z,10.60
2022-09-22T06:25:59.452Z,8.57
2022-09-22T06:28:27.692Z,9.47
2022-09-22T06:31:00.666Z,8.50
2022-09-22T06:33:29.307Z,9.27
2022-09-22T06:35:58.497Z,8.90
2022-09-22T06:38:26.759Z,9.13
2022-09-22T06:41:00.645Z,9.53
2022-09-22T06:43:28.992Z,9.10
2022-09-22T06:46:02.820Z,8.70
2022-09-22T06:48:32.057Z,7.97
2022-09-22T06:51:00.255Z,8.50
2022-09-22T06:53:28.586Z,8.50
2022-09-22T06:55:58.394Z,8.10
2022-09-22T06:58:28.066Z,8.00
2022-09-22T07:00:56.306Z,8.13
2022-09-22T07:03:26.537Z,8.07
2022-09-22T07:05:56.473Z,7.53
2022-09-22T07:08:26.099Z,7.97
2022-09-22T07:10:56.410Z,8.00
2022-09-22T07:13:25.296Z,7.63
2022-09-22T07:15:55.462Z,7.47
2022-09-22T07:18:25.097Z,7.70
2022-09-22T07:20:53.294Z,8.27
2022-09-22T07:23:21.529Z,7.00
2022-09-22T07:25:56.468Z,6.90
2022-09-22T07:28:25.859Z,7.17
2022-09-22T07:30:54.174Z,6.93
2022-09-22T07:33:23.126Z,7.50
2022-09-22T07:36:01.877Z,7.53
2022-09-22T07:38:36.576Z,7.60
2022-09-22T07:41:06.795Z,7.03
2022-09-22T07:43:35.259Z,7.33
2022-09-22T07:46:03.869Z,6.97
2022-09-22T07:48:42.856Z,6.97
2022-09-22T07:51:17.022Z,6.97
2022-09-22T07:53:47.064Z,6.97
2022-09-22T07:56:17.244Z,6.63
2022-09-22T07:58:50.031Z,6.30
2022-09-22T08:01:20.280Z,6.10
2022-09-22T08:03:48.972Z,5.83
2022-09-22T08:06:23.553Z,6.37
2022-09-22T08:08:56.390Z,6.53
2022-09-22T08:11:26.712Z,6.53
2022-09-22T08:13:57.199Z,6.40
2022-09-22T08:16:28.330Z,6.70
2022-09-22T08:18:57.651Z,6.60
2022-09-22T08:21:30.138Z,6.83
2022-09-22T08:23:59.294Z,6.10
2022-09-22T08:26:28.751Z,6.40
2022-09-22T08:28:57.811Z,6.40
2022-09-22T08:31:30.296Z,6.40
2022-09-22T08:33:58.678Z,6.23
2022-09-22T08:36:29.046Z,6.60
2022-09-22T08:38:59.380Z,6.80
2022-09-22T08:41:38.413Z,7.00
2022-09-22T08:44:20.045Z,6.40
2022-09-22T08:46:49.082Z,6.23
2022-09-22T08:49:41.388Z,6.63
2022-09-22T08:52:17.314Z,7.00
2022-09-22T08:54:46.492Z,6.27
2022-09-22T08:57:27.654Z,6.53
2022-09-22T09:00:04.352Z,5.90
2022-09-22T09:02:40.171Z,6.30
2022-09-22T09:05:31.928Z,6.47
2022-09-22T09:08:09.210Z,6.43
2022-09-22T09:10:49.648Z,5.27
2022-09-22T09:13:41.119Z,5.37
2022-09-22T09:16:27.112Z,5.80
2022-09-22T09:19:00.672Z,6.23
2022-09-22T09:21:33.076Z,5.80
2022-09-22T09:26:58.518Z,5.50
2022-09-22T09:29:30.202Z,5.23
2022-09-22T09:32:03.134Z,4.47
2022-09-22T09:34:31.617Z,4.67
2022-09-22T09:37:07.964Z,4.90
2022-09-22T09:39:39.419Z,4.50
2022-09-22T09:42:20.059Z,4.20
2022-09-22T09:44:53.505Z,4.40
2022-09-22T09:47:58.917Z,4.33
2022-09-22T09:50:32.473Z,3.93
2022-09-22T09:53:01.132Z,4.17
2022-09-22T09:55:33.553Z,3.67
2022-09-22T09:58:33.693Z,3.60
2022-09-22T10:01:02.657Z,3.33
2022-09-22T10:03:33.690Z,2.90
2022-09-22T10:06:06.193Z,3.00
2022-09-22T10:08:44.806Z,3.13
2022-09-22T10:11:15.262Z,3.30
2022-09-22T10:13:44.738Z,3.10
2022-09-22T10:16:33.561Z,2.40
2022-09-22T10:19:25.792Z,2.63
2022-09-22T10:21:56.058Z,2.67
2022-09-22T10:24:31.691Z,2.90
2022-09-22T10:27:05.204Z,2.20
2022-09-22T10:29:35.600Z,2.23
2022-09-22T10:32:15.031Z,2.30
2022-09-22T10:37:25.280Z,2.00
2022-09-22T10:39:54.771Z,1.80
2022-09-22T10:42:32.697Z,2.30
2022-09-22T10:45:04.769Z,1.80
2022-09-22T10:47:40.758Z,1.70
2022-09-22T10:50:31.661Z,1.90
2022-09-22T10:53:14.577Z,1.88
2022-09-22T10:55:52.960Z,1.92
2022-09-22T10:58:28.676Z,1.60
2022-09-22T11:01:11.629Z,1.73
2022-09-22T11:04:01.345Z,1.60
2022-09-22T11:07:01.538Z,1.58
2022-09-22T11:10:09.641Z,1.52
2022-09-22T11:12:47.678Z,1.55
2022-09-22T11:15:35.206Z,1.30
2022-09-22T11:18:34.483Z,1.50
2022-09-22T11:21:19.016Z,1.40
2022-09-22T11:24:16.343Z,1.50
2022-09-22T11:26:50.218Z,1.60
2022-09-22T11:29:45.128Z,1.70
2022-09-22T11:32:36.635Z,1.60
2022-09-22T11:35:24.057Z,1.30
2022-09-22T11:38:09.485Z,1.75
2022-09-22T11:40:52.972Z,1.20
2022-09-22T11:43:37.717Z,1.20
2022-09-22T11:46:10.599Z,1.20
2022-09-22T11:48:54.973Z,1.30
2022-09-22T11:51:42.949Z,1.42
2022-09-22T11:54:33.640Z,1.63
2022-09-22T11:57:05.345Z,1.50
2022-09-22T11:59:39.304Z,1.30
2022-09-22T12:02:18.744Z,1.38
2022-09-22T12:04:56.285Z,1.38
2022-09-22T12:07:30.502Z,1.40
2022-09-22T12:10:02.185Z,1.30
2022-09-22T12:12:33.436Z,1.20
2022-09-22T12:15:09.009Z,1.05
2022-09-22T12:17:44.778Z,1.50
2022-09-22T12:20:25.554Z,1.27
2022-09-22T12:23:17.054Z,1.50
2022-09-22T12:25:48.984Z,1.52
2022-09-22T12:28:19.467Z,1.45
2022-09-22T12:31:06.433Z,1.45
2022-09-22T12:33:37.217Z,1.35
2022-09-22T12:36:08.033Z,1.33
2022-09-22T12:38:37.344Z,1.40
2022-09-22T12:41:07.325Z,1.50
2022-09-22T12:43:37.623Z,1.60
2022-09-22T12:46:18.095Z,1.40
2022-09-22T12:48:47.202Z,1.45
2022-09-22T12:51:32.495Z,1.58
2022-09-22T12:54:29.863Z,1.20
2022-09-22T12:57:00.279Z,1.20
2022-09-22T12:59:58.050Z,1.20
2022-09-22T13:02:31.461Z,1.38
2022-09-22T13:05:46.450Z,1.20
2022-09-22T13:08:24.396Z,1.48
2022-09-22T13:11:01.070Z,1.30
2022-09-22T13:13:43.621Z,1.40
2022-09-22T13:16:33.497Z,1.40
2022-09-22T13:19:03.554Z,1.08
2022-09-22T13:21:34.441Z,1.40
2022-09-22T13:24:06.527Z,1.20
2022-09-22T13:26:36.598Z,1.48
2022-09-22T13:29:13.105Z,1.40
2022-09-22T13:31:44.209Z,1.40
2022-09-22T13:34:25.779Z,1.20
2022-09-22T13:36:58.199Z,4.28
2022-09-22T13:39:31.962Z,2.47
2022-09-22T13:42:06.159Z,2.65
2022-09-22T13:44:38.318Z,1.48
2022-09-22T13:47:13.113Z,1.55
2022-09-22T13:49:44.593Z,1.20
2022-09-22T13:52:17.736Z,1.20
2022-09-22T13:54:51.048Z,1.30
2022-09-22T13:57:22.911Z,1.30
2022-09-22T13:59:53.357Z,1.20
2022-09-22T14:02:28.128Z,1.38
2022-09-22T14:05:02.741Z,1.17
2022-09-22T14:07:38.318Z,1.60
2022-09-22T14:10:19.041Z,2.42
2022-09-22T14:12:47.581Z,1.20
2022-09-22T14:15:50.244Z,1.20
2022-09-22T14:18:27.147Z,1.77
2022-09-22T14:20:57.371Z,1.30
2022-09-22T14:23:31.159Z,1.85
2022-09-22T14:26:03.730Z,3.15
2022-09-22T14:28:36.501Z,1.20
2022-09-22T14:31:14.772Z,1.20
2022-09-22T14:33:45.567Z,1.50
2022-09-22T14:36:18.596Z,1.45
2022-09-22T14:39:01.294Z,1.35
2022-09-22T14:41:39.476Z,1.50
2022-09-22T14:44:26.692Z,1.30
2022-09-22T14:46:56.779Z,1.30
2022-09-22T14:49:38.217Z,1.40
2022-09-22T14:52:14.770Z,1.50
2022-09-22T14:54:44.682Z,1.30
2022-09-22T14:57:17.985Z,1.20
2022-09-22T15:00:07.793Z,1.35
2022-09-22T15:02:41.571Z,1.40
2022-09-22T15:05:12.253Z,1.40
2022-09-22T15:07:48.202Z,1.30
2022-09-22T15:10:25.722Z,1.30
2022-09-22T15:12:56.865Z,1.35
2022-09-22T15:15:27.421Z,1.27
2022-09-22T15:18:21.011Z,1.20
2022-09-22T15:20:52.497Z,1.38
2022-09-22T15:23:25.983Z,1.60
2022-09-22T15:25:55.599Z,1.40
2022-09-22T15:28:27.113Z,1.70
2022-09-22T15:30:56.411Z,1.40
2022-09-22T15:33:25.073Z,1.40
2022-09-22T15:35:57.445Z,1.30
2022-09-22T15:38:28.294Z,1.40
2022-09-22T15:40:57.529Z,1.38
2022-09-22T15:43:31.714Z,1.30
2022-09-22T15:46:01.903Z,1.30
2022-09-22T15:48:32.079Z,1.30
2022-09-22T15:51:04.803Z,1.40
2022-09-22T15:53:34.230Z,1.55
2022-09-22T15:56:05.943Z,1.40
2022-09-22T15:58:37.166Z,1.33
2022-09-22T16:01:05.802Z,1.30
2022-09-22T16:03:40.963Z,1.42
2022-09-22T16:06:16.554Z,1.35
2022-09-22T16:08:46.835Z,1.50
2022-09-22T16:11:17.398Z,1.70
2022-09-22T16:13:48.489Z,2.35
2022-09-22T16:16:18.367Z,3.10
2022-09-22T16:18:46.853Z,7.07
2022-09-22T16:21:22.879Z,10.38
2022-09-22T16:23:53.697Z,4.88
2022-09-22T16:26:22.642Z,3.17
2022-09-22T16:28:52.208Z,4.10
2022-09-22T16:31:20.608Z,3.38
2022-09-22T16:33:54.217Z,4.22
2022-09-22T16:36:23.174Z,4.00
2022-09-22T16:38:51.807Z,5.38
2022-09-22T16:41:21.918Z,4.63
2022-09-22T16:43:52.493Z,5.25
2022-09-22T16:46:28.157Z,3.75
2022-09-22T16:49:00.480Z,4.35
2022-09-22T16:51:29.370Z,8.68
2022-09-22T16:53:57.733Z,6.60
2022-09-22T16:56:27.668Z,4.70
2022-09-22T16:58:57.997Z,3.90
2022-09-22T17:01:26.928Z,2.90
2022-09-22T17:03:55.216Z,2.80
2022-09-22T17:06:25.393Z,2.50
2022-09-22T17:08:55.061Z,2.30
2022-09-22T17:11:29.620Z,2.35
2022-09-22T17:14:01.582Z,2.40
2022-09-22T17:16:31.102Z,2.92
2022-09-22T17:19:03.052Z,3.17
2022-09-22T17:21:34.495Z,2.60
2022-09-22T17:24:04.365Z,2.60
2022-09-22T17:26:34.784Z,3.23
2022-09-22T17:29:07.242Z,3.40
2022-09-22T17:31:36.905Z,3.10
2022-09-22T17:34:05.265Z,4.63
2022-09-22T17:36:33.643Z,6.57
2022-09-22T17:39:02.334Z,3.13
2022-09-22T17:41:32.906Z,3.07
2022-09-22T17:44:03.255Z,4.10
2022-09-22T17:46:35.415Z,48.80
2022-09-22T17:49:21.337Z,3.50
2022-09-22T17:52:08.190Z,4.93
2022-09-22T17:54:55.812Z,5.87
2022-09-22T17:57:25.870Z,5.70
2022-09-22T17:59:55.657Z,7.47
2022-09-22T18:02:27.865Z,6.70
2022-09-22T18:04:56.494Z,7.50
2022-09-22T18:07:26.786Z,6.63
2022-09-22T18:09:56.023Z,11.10
2022-09-22T18:12:25.680Z,5.30
2022-09-22T18:14:55.966Z,5.37
2022-09-22T18:17:29.057Z,4.90
2022-09-22T18:19:59.102Z,4.67
2022-09-22T18:22:29.826Z,4.83
2022-09-22T18:24:58.215Z,4.37
2022-09-22T18:27:28.064Z,3.83
2022-09-22T18:29:58.689Z,3.43
2022-09-22T18:32:29.203Z,3.47
2022-09-22T18:34:57.607Z,3.77
2022-09-22T18:37:27.236Z,3.80
2022-09-22T18:39:55.761Z,4.20
2022-09-22T18:42:26.391Z,3.80
2022-09-22T18:44:55.310Z,4.10
2022-09-22T18:47:24.283Z,4.40
2022-09-22T18:49:54.264Z,3.80
2022-09-22T18:52:24.592Z,3.50
2022-09-22T18:54:54.670Z,3.83
2022-09-22T18:57:24.744Z,3.90
2022-09-22T18:59:54.141Z,3.93
2022-09-22T19:02:23.358Z,3.50
2022-09-22T19:04:53.694Z,3.80
2022-09-22T19:07:44.103Z,3.80
2022-09-22T19:10:14.307Z,4.37
2022-09-22T19:12:43.123Z,3.87
2022-09-22T19:15:15.453Z,3.43
2022-09-22T19:17:45.376Z,3.30
2022-09-22T19:20:17.386Z,2.60
2022-09-22T19:22:46.865Z,2.60
2022-09-22T19:25:16.093Z,3.10
2022-09-22T19:27:44.631Z,3.00
2022-09-22T19:30:14.017Z,3.10
2022-09-22T19:32:43.166Z,3.60
2022-09-22T19:35:11.661Z,3.60
2022-09-22T19:37:41.973Z,3.40
2022-09-22T19:40:13.323Z,3.47
2022-09-22T19:42:41.594Z,3.63
2022-09-22T19:45:11.214Z,3.50
2022-09-22T19:47:40.543Z,4.10
2022-09-22T19:50:09.813Z,3.50
2022-09-22T19:52:39.109Z,3.90
2022-09-22T19:55:11.589Z,3.40
2022-09-22T19:57:41.626Z,3.60
2022-09-22T20:00:11.671Z,3.70
2022-09-22T20:02:40.317Z,3.40
2022-09-22T20:05:20.707Z,3.80
2022-09-22T20:07:49.041Z,5.83
2022-09-22T20:10:19.224Z,8.83
2022-09-22T20:12:47.741Z,8.30
2022-09-22T20:15:16.375Z,7.00
2022-09-22T20:17:46.481Z,6.93
2022-09-22T20:20:16.142Z,5.80
2022-09-22T20:22:45.642Z,6.17
2022-09-22T20:25:23.272Z,7.83
2022-09-22T20:27:51.886Z,29.40
2022-09-22T20:30:21.231Z,13.57
2022-09-22T20:32:50.535Z,22.83
2022-09-22T20:35:22.123Z,11.70
2022-09-22T20:37:51.685Z,8.70
2022-09-22T20:40:23.384Z,7.80
2022-09-22T20:42:54.297Z,7.53
2022-09-22T20:45:24.820Z,8.00
2022-09-22T20:47:53.282Z,8.40
2022-09-22T20:50:22.216Z,8.67
2022-09-22T20:52:50.562Z,7.70
2022-09-22T20:55:18.885Z,7.77
2022-09-22T20:57:48.432Z,6.80
2022-09-22T21:00:16.899Z,6.97
2022-09-22T21:02:45.614Z,6.83
2022-09-22T21:05:13.820Z,6.53
2022-09-22T21:07:42.063Z,6.13
2022-09-22T21:10:27.890Z,6.00
2022-09-22T21:12:58.561Z,5.90
2022-09-22T21:15:27.109Z,5.57
2022-09-22T21:17:55.309Z,5.70
2022-09-22T21:20:23.489Z,4.93
2022-09-22T21:22:53.493Z,6.40
2022-09-22T21:25:21.730Z,6.73
2022-09-22T21:27:49.950Z,10.37
2022-09-22T21:30:19.599Z,9.80
2022-09-22T21:32:47.985Z,8.97
2022-09-22T21:35:17.356Z,8.93
2022-09-22T21:37:45.880Z,9.67
2022-09-22T21:40:14.357Z,8.57
2022-09-22T21:42:42.850Z,6.80
2022-09-22T21:45:12.934Z,6.17
2022-09-22T21:47:42.635Z,6.30
2022-09-22T21:50:11.269Z,6.57
2022-09-22T21:52:39.441Z,5.67
2022-09-22T21:55:08.640Z,5.53
2022-09-22T21:57:36.814Z,5.57
2022-09-22T22:00:07.988Z,5.07
2022-09-22T22:02:55.695Z,5.50
2022-09-22T22:05:24.043Z,5.70
2022-09-22T22:07:52.376Z,5.57
2022-09-22T22:10:20.632Z,5.70
2022-09-22T22:12:48.891Z,5.53
2022-09-22T22:15:17.297Z,5.20
2022-09-22T22:17:49.089Z,5.33
2022-09-22T22:20:17.589Z,5.50
2022-09-22T22:22:46.790Z,5.00
2022-09-22T22:25:17.567Z,5.50
2022-09-22T22:27:45.952Z,5.63
2022-09-22T22:30:15.108Z,5.97
2022-09-22T22:32:43.359Z,6.27
2022-09-22T22:35:12.926Z,5.80
2022-09-22T22:37:43.205Z,6.40
2022-09-22T22:40:11.821Z,6.60
2022-09-22T22:42:40.093Z,6.80
2022-09-22T22:45:08.890Z,7.10
2022-09-22T22:47:37.528Z,7.20
2022-09-22T22:50:06.642Z,7.70
2022-09-22T22:52:39.831Z,7.17
2022-09-22T22:55:09.542Z,7.10
2022-09-22T22:57:38.386Z,7.23
2022-09-22T23:00:07.685Z,7.23
2022-09-22T23:02:36.181Z,7.33
2022-09-22T23:05:04.700Z,7.07
2022-09-22T23:07:33.112Z,6.87
2022-09-22T23:10:07.156Z,7.30
2022-09-22T23:12:36.077Z,7.80
2022-09-22T23:15:05.056Z,7.40
2022-09-22T23:17:33.391Z,7.27
2022-09-22T23:20:01.857Z,6.80
2022-09-22T23:22:30.610Z,6.60
2022-09-22T23:24:58.951Z,6.33
2022-09-22T23:27:28.483Z,6.10
2022-09-22T23:29:57.379Z,5.87
2022-09-22T23:32:25.611Z,6.07
2022-09-22T23:34:53.979Z,6.03
2022-09-22T23:37:24.919Z,6.70
2022-09-22T23:39:53.531Z,5.63
2022-09-22T23:42:21.942Z,6.10
2022-09-22T23:44:51.598Z,6.87
2022-09-22T23:47:19.759Z,7.30
2022-09-22T23:49:47.948Z,7.53
2022-09-22T23:52:16.177Z,8.70
2022-09-22T23:54:44.761Z,8.33
2022-09-22T23:57:13.064Z,8.70
2022-09-22T23:59:41.224Z,8.43
